Time;durP1;ratioP1;P1;durP2;ratioP2;P2;SDS_P1;SDS_P2;PMS_P1;PMS_P2;Temp;Humidity;BMP_temperature;BMP_pressure;BME280_temperature;BME280_humidity;BME280_pressure;Samples;Min_cycle;Max_cycle;Signal;HPM_P1;HPM_P2
2022/06/22 00:03:19;;;;;;;7.10;3.55;;;13.60;99.90;;;;;;10320347;28;20217;-84
2022/06/22 00:08:46;;;;;;;6.32;3.70;;;13.60;99.90;;;;;;10289293;28;20228;-84
2022/06/22 00:14:18;;;;;;;6.75;2.95;;;13.60;99.90;;;;;;10289428;28;20495;-84
2022/06/22 00:19:42;;;;;;;6.68;3.20;;;13.60;99.90;;;;;;10293324;28;20195;-83
2022/06/22 00:25:27;;;;;;;7.22;3.40;;;13.60;99.90;;;;;;10309409;28;20212;-84
2022/06/22 00:30:48;;;;;;;5.22;3.13;;;13.60;99.90;;;;;;10304657;28;20232;-84
2022/06/22 00:36:20;;;;;;;8.43;3.70;;;13.60;99.90;;;;;;10288542;28;20199;-84
2022/06/22 00:41:47;;;;;;;7.45;3.50;;;13.60;99.90;;;;;;10262198;29;20278;-82
2022/06/22 00:47:20;;;;;;;7.43;3.22;;;13.60;99.90;;;;;;10247998;29;20210;-84
2022/06/22 00:52:47;;;;;;;5.30;3.42;;;13.60;99.90;;;;;;10288687;28;20249;-84
2022/06/22 00:58:46;;;;;;;5.45;3.50;;;13.60;99.90;;;;;;10304023;28;20187;-83
2022/06/22 01:04:21;;;;;;;8.25;4.07;;;13.60;99.90;;;;;;10165286;29;20216;-84
2022/06/22 01:09:54;;;;;;;5.40;3.40;;;13.60;99.90;;;;;;10158998;29;20232;-82
2022/06/22 01:15:25;;;;;;;4.25;3.13;;;13.60;99.90;;;;;;10165444;29;20214;-84
2022/06/22 01:20:58;;;;;;;5.05;2.72;;;13.60;99.90;;;;;;10165891;29;20442;-84
2022/06/22 01:26:50;;;;;;;5.45;3.30;;;13.60;99.90;;;;;;10166234;29;20221;-84
2022/06/22 01:32:21;;;;;;;4.32;2.80;;;13.50;99.90;;;;;;10155209;29;20261;-84
2022/06/22 01:37:45;;;;;;;7.30;3.05;;;13.50;99.90;;;;;;10180315;28;20219;-84
2022/06/22 01:43:14;;;;;;;4.43;2.60;;;13.50;99.90;;;;;;10259699;29;20484;-83
2022/06/22 01:48:48;;;;;;;5.88;3.60;;;13.50;99.90;;;;;;10254488;28;20227;-84
2022/06/22 01:54:13;;;;;;;5.20;2.90;;;13.50;99.90;;;;;;10271544;28;20198;-84
2022/06/22 01:59:59;;;;;;;6.70;3.67;;;13.50;99.90;;;;;;10285601;28;20384;-82
2022/06/22 02:05:41;;;;;;;5.00;3.15;;;13.50;99.90;;;;;;10301318;28;20199;-84
2022/06/22 02:11:28;;;;;;;5.47;3.03;;;13.40;99.90;;;;;;10297187;28;20232;-84
2022/06/22 02:16:57;;;;;;;3.80;2.72;;;13.40;99.90;;;;;;10285095;28;20208;-84
2022/06/22 02:22:19;;;;;;;5.18;2.85;;;13.40;99.90;;;;;;10286066;28;20213;-85
2022/06/22 02:27:41;;;;;;;4.13;2.80;;;13.40;99.90;;;;;;10284596;28;20199;-84
2022/06/22 02:33:04;;;;;;;5.35;3.45;;;13.40;99.90;;;;;;10280124;28;20299;-84
2022/06/22 02:38:26;;;;;;;5.97;3.35;;;13.30;99.90;;;;;;10284996;28;20280;-84
2022/06/22 02:49:35;;;;;;;4.13;3.25;;;13.30;99.90;;;;;;10284298;28;20217;-83
2022/06/22 02:54:58;;;;;;;4.03;3.60;;;13.30;99.90;;;;;;10284578;28;20355;-84
2022/06/22 03:00:28;;;;;;;5.55;3.28;;;13.30;99.90;;;;;;10271078;28;20199;-84
2022/06/22 03:05:54;;;;;;;5.80;3.92;;;13.30;99.90;;;;;;10292140;28;20452;-83
2022/06/22 03:11:17;;;;;;;5.32;3.13;;;13.40;99.90;;;;;;10318147;28;20494;-84
2022/06/22 03:16:42;;;;;;;6.15;4.07;;;13.40;99.90;;;;;;10278557;28;20314;-83
2022/06/22 03:22:04;;;;;;;5.50;3.42;;;13.40;99.90;;;;;;10308722;28;20200;-84
2022/06/22 03:27:30;;;;;;;5.10;3.78;;;13.40;99.90;;;;;;10265107;29;20430;-84
2022/06/22 03:33:05;;;;;;;6.75;3.67;;;13.50;99.90;;;;;;10271558;28;20249;-84
2022/06/22 03:38:34;;;;;;;6.70;4.05;;;13.50;99.90;;;;;;10253687;28;20200;-84
2022/06/22 03:44:03;;;;;;;9.35;4.88;;;13.50;99.90;;;;;;10290340;28;20204;-84
2022/06/22 03:49:44;;;;;;;8.95;4.50;;;13.50;99.90;;;;;;10289896;28;20225;-84
2022/06/22 03:55:14;;;;;;;6.03;4.22;;;13.60;99.90;;;;;;10303207;28;20283;-84
2022/06/22 04:00:39;;;;;;;7.50;4.10;;;13.60;99.90;;;;;;10289829;28;20194;-84
2022/06/22 04:06:03;;;;;;;7.30;4.22;;;13.70;99.90;;;;;;10291587;28;20210;-84
2022/06/22 04:11:31;;;;;;;4.35;3.75;;;13.70;99.90;;;;;;10288959;28;20299;-84
2022/06/22 04:16:59;;;;;;;5.22;4.07;;;13.80;99.90;;;;;;10275263;28;20587;-84
2022/06/22 04:22:27;;;;;;;8.60;4.07;;;13.90;99.90;;;;;;10359466;28;20202;-84
2022/06/22 04:27:51;;;;;;;7.97;4.18;;;13.90;99.90;;;;;;10274668;28;20235;-84
2022/06/22 04:33:34;;;;;;;7.25;3.67;;;14.00;99.90;;;;;;10264557;29;20236;-84
2022/06/22 04:39:01;;;;;;;5.50;3.35;;;14.10;99.90;;;;;;10264108;29;20204;-84
2022/06/22 04:44:27;;;;;;;4.65;2.92;;;14.20;99.90;;;;;;10264712;29;20439;-84
2022/06/22 04:49:54;;;;;;;6.65;3.63;;;14.30;99.90;;;;;;10263659;29;20220;-84
2022/06/22 04:55:19;;;;;;;5.82;3.13;;;14.40;99.90;;;;;;10277154;29;20193;-84
2022/06/22 05:00:44;;;;;;;7.00;3.47;;;14.50;99.90;;;;;;10263466;29;20291;-84
2022/06/22 05:06:23;;;;;;;6.00;2.95;;;14.60;99.90;;;;;;10263173;29;20205;-84
2022/06/22 05:11:48;;;;;;;3.70;2.95;;;14.80;99.90;;;;;;10262092;29;20265;-84
2022/06/22 05:17:25;;;;;;;9.02;2.70;;;15.00;99.90;;;;;;10262862;29;20198;-84
2022/06/22 05:22:50;;;;;;;9.68;3.00;;;15.10;99.90;;;;;;10249194;29;20204;-85
2022/06/22 05:28:22;;;;;;;9.18;3.72;;;15.30;99.90;;;;;;10262471;28;20439;-85
2022/06/22 05:33:49;;;;;;;7.70;2.65;;;15.50;99.90;;;;;;10250590;29;20248;-84
2022/06/22 05:39:12;;;;;;;9.05;2.78;;;15.60;99.90;;;;;;10252686;29;20205;-85
2022/06/22 05:44:33;;;;;;;11.05;3.40;;;15.80;99.90;;;;;;10261585;29;20195;-84
2022/06/22 05:50:14;;;;;;;11.50;3.90;;;15.90;90.00;;;;;;10248313;29;20590;-84
2022/06/22 05:56:01;;;;;;;5.10;2.63;;;16.10;52.90;;;;;;10248622;29;20498;-84
2022/06/22 06:01:41;;;;;;;7.90;2.90;;;16.20;57.70;;;;;;10261684;29;20204;-84
2022/06/22 06:07:36;;;;;;;9.70;3.38;;;16.50;23.60;;;;;;10268490;29;20206;-85
2022/06/22 06:13:06;;;;;;;4.05;2.38;;;16.70;1.00;;;;;;10261393;29;20220;-84
2022/06/22 06:18:41;;;;;;;4.88;2.60;;;17.00;1.00;;;;;;10268909;28;20194;-84
2022/06/22 06:24:10;;;;;;;7.40;2.45;;;17.10;1.00;;;;;;10270748;29;20192;-85
2022/06/22 06:29:42;;;;;;;8.90;2.65;;;17.40;1.00;;;;;;10278401;28;20457;-85
2022/06/22 06:35:28;;;;;;;5.75;2.53;;;17.80;1.00;;;;;;10270696;28;20287;-85
2022/06/22 06:41:01;;;;;;;5.00;2.65;;;18.20;1.00;;;;;;10271755;28;20244;-85
2022/06/22 06:46:25;;;;;;;7.18;2.90;;;18.50;1.00;;;;;;10308805;28;20244;-85
2022/06/22 06:51:56;;;;;;;4.80;2.10;;;19.40;1.00;;;;;;10305666;28;20237;-84
2022/06/22 06:57:20;;;;;;;7.60;2.97;;;20.00;1.00;;;;;;10254944;29;20274;-85
2022/06/22 07:02:43;;;;;;;6.28;2.50;;;20.40;59.70;;;;;;10272061;28;20237;-85
2022/06/22 07:08:15;;;;;;;5.88;2.15;;;20.90;72.60;;;;;;10291539;28;20556;-83
2022/06/22 07:14:16;;;;;;;4.15;1.88;;;20.70;68.10;;;;;;10294165;28;20211;-85
2022/06/22 07:19:41;;;;;;;4.00;2.20;;;21.00;74.50;;;;;;10298186;28;20239;-91
2022/06/22 07:25:15;;;;;;;4.80;2.00;;;20.60;56.20;;;;;;10283513;28;20198;-86
2022/06/22 07:30:45;;;;;;;4.32;1.85;;;20.20;51.50;;;;;;10262965;28;20449;-86
2022/06/22 07:36:45;;;;;;;5.75;3.65;;;19.70;38.10;;;;;;10301417;28;20478;-83
2022/06/22 07:42:12;;;;;;;4.35;1.70;;;19.50;73.50;;;;;;10262436;29;20210;-87
2022/06/22 07:47:36;;;;;;;5.65;1.88;;;19.40;1.00;;;;;;10287912;28;20497;-86
2022/06/22 07:53:06;;;;;;;3.72;1.80;;;19.20;1.00;;;;;;10285359;28;20254;-84
2022/06/22 07:58:50;;;;;;;3.30;2.00;;;19.60;1.00;;;;;;10316010;28;20191;-87
2022/06/22 08:04:25;;;;;;;3.92;2.22;;;19.70;1.00;;;;;;10291419;28;20213;-86
2022/06/22 08:10:04;;;;;;;3.95;1.92;;;20.00;1.00;;;;;;10285080;28;20492;-85
2022/06/22 08:15:30;;;;;;;7.78;2.30;;;20.40;1.00;;;;;;10284152;28;20271;-84
2022/06/22 08:20:53;;;;;;;1.70;1.55;;;20.70;1.00;;;;;;10278579;28;20218;-86
2022/06/22 08:26:23;;;;;;;5.40;2.42;;;20.30;1.00;;;;;;10286621;28;20202;-82
2022/06/22 08:31:59;;;;;;;2.92;2.08;;;19.90;1.00;;;;;;10283485;28;20317;-83
2022/06/22 08:38:02;;;;;;;5.53;2.55;;;19.80;1.00;;;;;;10259250;29;20203;-83
2022/06/22 08:43:41;;;;;;;5.60;2.10;;;19.80;1.00;;;;;;10275700;28;20213;-84
2022/06/22 08:49:44;;;;;;;3.75;1.73;;;19.90;1.00;;;;;;10311312;28;20278;-85
2022/06/22 08:55:55;;;;;;;4.47;2.38;;;20.00;1.00;;;;;;10153185;29;20428;-88
2022/06/22 09:01:35;;;;;;;7.93;2.25;;;20.20;1.00;;;;;;10032571;29;20255;-83
2022/06/22 09:07:27;;;;;;;5.57;2.97;;;20.30;1.00;;;;;;10038184;29;20356;-84
2022/06/22 09:20:29;;;;;;;3.15;1.95;;;21.00;1.00;;;;;;10073066;29;20402;-86
2022/06/22 09:26:07;;;;;;;3.90;2.33;;;20.80;1.00;;;;;;10044692;29;20215;-87
2022/06/22 09:31:34;;;;;;;3.95;2.00;;;20.60;1.00;;;;;;10090552;29;20250;-94
2022/06/22 09:37:34;;;;;;;2.97;1.80;;;20.70;1.00;;;;;;10216736;29;20209;-91
2022/06/22 09:43:04;;;;;;;4.18;1.75;;;21.40;99.90;;;;;;10272391;28;20221;-94
2022/06/22 09:48:40;;;;;;;6.13;2.20;;;21.40;99.90;;;;;;10273422;28;20222;-88
2022/06/22 10:00:18;;;;;;;4.63;1.80;;;21.30;99.90;;;;;;10270560;29;20199;-83
2022/06/22 10:05:58;;;;;;;7.35;3.88;;;21.30;99.90;;;;;;10299858;28;20261;-87
2022/06/22 10:11:52;;;;;;;4.10;2.22;;;21.30;99.90;;;;;;10311432;28;20414;-83
2022/06/22 10:17:42;;;;;;;3.25;1.90;;;21.80;99.90;;;;;;10287102;28;20198;-89
2022/06/22 10:23:47;;;;;;;2.33;1.55;;;22.20;99.90;;;;;;10296089;28;20214;-86
2022/06/22 10:29:27;;;;;;;3.33;1.67;;;22.30;99.90;;;;;;10295950;28;20202;-87
2022/06/22 10:35:01;;;;;;;4.72;2.85;;;22.80;99.90;;;;;;10310418;28;20203;-94
2022/06/22 10:46:45;;;;;;;2.72;1.75;;;23.00;99.90;;;;;;10240959;29;20207;-89
2022/06/22 10:52:33;;;;;;;4.50;1.85;;;23.10;1.00;;;;;;10269036;28;20249;-90
2022/06/22 10:58:33;;;;;;;5.53;2.08;;;23.30;1.00;;;;;;10266629;28;20229;-83
2022/06/22 11:04:22;;;;;;;3.63;1.40;;;24.40;99.90;;;;;;10280572;28;20214;-86
2022/06/22 11:10:13;;;;;;;12.77;4.13;;;24.70;1.00;;;;;;10280171;28;20413;-86
2022/06/22 11:16:08;;;;;;;3.85;1.88;;;24.50;1.00;;;;;;10280325;28;20203;-90
2022/06/22 11:21:48;;;;;;;3.72;1.55;;;24.10;1.00;;;;;;10277649;28;20218;-91
2022/06/22 11:33:40;;;;;;;2.60;1.63;;;24.00;1.00;;;;;;10300414;28;20256;-91
2022/06/22 11:39:13;;;;;;;2.47;1.60;;;24.80;1.00;;;;;;10197976;29;20433;-89
2022/06/22 11:51:29;;;;;;;5.05;1.35;;;23.50;1.00;;;;;;10177437;29;20282;-88
2022/06/22 11:57:21;;;;;;;1.83;1.30;;;23.00;1.00;;;;;;10063748;29;20569;-89
2022/06/22 12:02:46;;;;;;;2.33;1.40;;;23.80;1.00;;;;;;10089304;29;20222;-92
2022/06/22 12:08:16;;;;;;;4.53;1.95;;;24.00;1.00;;;;;;10091336;29;20216;-84
2022/06/22 12:20:27;;;;;;;3.17;1.42;;;24.20;1.00;;;;;;10211514;29;20238;-87
2022/06/22 12:26:01;;;;;;;1.75;1.40;;;23.60;1.00;;;;;;10176768;29;20626;-88
2022/06/22 12:31:27;;;;;;;2.55;1.50;;;23.20;1.00;;;;;;10255687;28;20269;-92
2022/06/22 12:36:56;;;;;;;3.28;1.42;;;23.50;1.00;;;;;;10287189;28;20199;-90
2022/06/22 12:42:48;;;;;;;3.85;1.50;;;24.50;1.00;;;;;;10284173;28;20564;-89
2022/06/22 12:54:21;;;;;;;3.67;1.70;;;25.40;1.00;;;;;;10302017;28;20635;-84
2022/06/22 12:59:45;;;;;;;11.57;2.20;;;25.70;1.00;;;;;;10149606;29;20214;-84
2022/06/22 13:05:18;;;;;;;5.38;1.80;;;25.90;1.00;;;;;;10157049;29;20332;-83
2022/06/22 13:10:45;;;;;;;5.13;1.75;;;26.00;1.00;;;;;;10148502;29;20308;-83
2022/06/22 13:16:06;;;;;;;3.60;1.67;;;26.20;1.00;;;;;;10160369;29;20208;-84
2022/06/22 13:21:43;;;;;;;2.67;1.80;;;26.10;99.90;;;;;;10158085;29;20319;-83
2022/06/22 13:27:24;;;;;;;4.32;2.00;;;25.90;99.90;;;;;;10149936;29;20272;-86
2022/06/22 13:32:57;;;;;;;2.80;1.35;;;25.90;99.90;;;;;;10206645;29;20243;-84
2022/06/22 13:39:03;;;;;;;1.50;1.27;;;25.30;99.90;;;;;;10244009;29;20192;-84
2022/06/22 13:44:34;;;;;;;1.63;1.33;;;25.30;99.90;;;;;;10278110;29;20188;-84
2022/06/22 13:50:51;;;;;;;2.05;1.23;;;25.00;99.90;;;;;;10264760;28;20215;-84
2022/06/22 13:56:28;;;;;;;29.33;3.20;;;24.50;99.90;;;;;;10276797;29;20207;-83
2022/06/22 14:02:04;;;;;;;2.38;1.20;;;24.20;99.90;;;;;;10270031;29;20196;-80
2022/06/22 14:08:40;;;;;;;2.45;1.40;;;24.20;99.90;;;;;;10258858;28;20199;-78
2022/06/22 14:14:31;;;;;;;3.90;1.83;;;24.30;99.90;;;;;;10279191;29;20237;-76
2022/06/22 14:20:09;;;;;;;2.03;1.48;;;24.10;99.90;;;;;;10261861;28;20191;-78
2022/06/22 14:25:51;;;;;;;3.15;1.90;;;24.00;99.90;;;;;;10274448;29;20230;-77
2022/06/22 14:31:57;;;;;;;1.55;1.40;;;23.90;99.90;;;;;;10309398;28;20237;-77
2022/06/22 14:44:26;;;;;;;4.18;1.23;;;23.90;99.90;;;;;;10328031;28;20185;-79
2022/06/22 14:50:07;;;;;;;3.40;1.73;;;24.20;99.90;;;;;;10329140;28;20241;-80
2022/06/22 14:55:50;;;;;;;3.67;1.60;;;24.30;99.90;;;;;;10317951;28;20218;-79
2022/06/22 15:02:10;;;;;;;3.80;1.77;;;24.30;99.90;;;;;;10335956;28;20199;-86
2022/06/22 15:08:18;;;;;;;3.95;1.30;;;24.10;99.90;;;;;;10329829;28;20254;-82
2022/06/22 15:13:49;;;;;;;4.25;1.90;;;23.80;99.90;;;;;;10316235;28;20446;-78
2022/06/22 15:19:30;;;;;;;4.35;1.45;;;23.80;99.90;;;;;;10324733;28;20195;-76
2022/06/22 15:24:57;;;;;;;3.13;1.50;;;23.80;99.90;;;;;;10299085;28;20776;-79
2022/06/22 15:30:23;;;;;;;6.35;2.67;;;23.80;99.90;;;;;;10273245;29;20290;-81
2022/06/22 15:36:09;;;;;;;3.47;2.38;;;23.80;99.90;;;;;;10269889;29;20250;-78
2022/06/22 15:41:55;;;;;;;5.50;2.40;;;23.70;99.90;;;;;;10274907;29;20261;-82
2022/06/22 15:47:33;;;;;;;3.25;1.92;;;23.60;99.90;;;;;;10294512;28;20270;-78
2022/06/22 15:53:09;;;;;;;3.58;1.60;;;23.40;99.90;;;;;;10311163;28;20520;-77
2022/06/22 15:58:47;;;;;;;3.47;1.20;;;23.40;99.90;;;;;;10327574;28;20190;-78
2022/06/22 16:04:27;;;;;;;2.90;1.50;;;23.30;99.90;;;;;;10313572;28;20303;-77
2022/06/22 16:10:02;;;;;;;2.38;1.10;;;23.10;99.90;;;;;;10328346;28;20266;-78
2022/06/22 16:15:37;;;;;;;1.55;1.02;;;23.10;99.90;;;;;;10294485;28;20563;-77
2022/06/22 16:21:12;;;;;;;1.80;0.70;;;23.10;99.90;;;;;;10283334;28;20503;-78
2022/06/22 16:26:44;;;;;;;1.60;0.90;;;23.00;99.90;;;;;;10268267;29;20218;-79
2022/06/22 16:32:28;;;;;;;1.52;0.90;;;22.90;99.90;;;;;;10289918;28;20541;-83
2022/06/22 16:38:02;;;;;;;2.72;1.27;;;22.90;99.90;;;;;;10284793;28;20195;-78
2022/06/22 16:43:32;;;;;;;2.08;0.88;;;22.70;99.90;;;;;;10283186;29;20207;-81
2022/06/22 16:48:58;;;;;;;2.72;1.00;;;22.60;99.90;;;;;;10288625;28;20215;-78
2022/06/22 16:54:21;;;;;;;2.20;1.40;;;22.40;99.90;;;;;;10306826;28;20245;-78
2022/06/22 16:59:54;;;;;;;2.95;1.60;;;22.30;99.90;;;;;;10308638;28;20201;-78
2022/06/22 17:05:19;;;;;;;1.75;0.90;;;22.30;99.50;;;;;;10310496;28;20253;-78
2022/06/22 17:10:53;;;;;;;1.10;1.00;;;22.30;89.60;;;;;;10294150;28;20226;-79
2022/06/22 17:16:35;;;;;;;0.95;0.90;;;22.30;78.00;;;;;;10324864;28;20245;-79
2022/06/22 17:22:23;;;;;;;2.53;1.20;;;22.20;74.90;;;;;;10294010;28;20439;-79
2022/06/22 17:27:49;;;;;;;4.20;1.27;;;22.20;92.80;;;;;;10263199;29;20210;-78
2022/06/22 17:33:34;;;;;;;1.67;0.90;;;22.10;99.90;;;;;;10279078;29;20293;-77
2022/06/22 17:38:59;;;;;;;2.67;0.95;;;21.90;99.90;;;;;;10250488;29;20246;-79
2022/06/22 17:44:32;;;;;;;4.00;1.02;;;21.70;99.90;;;;;;10276344;29;20509;-79
2022/06/22 17:49:56;;;;;;;1.10;1.00;;;21.60;99.90;;;;;;10262133;29;20199;-79
2022/06/22 17:55:29;;;;;;;2.70;1.23;;;21.50;99.90;;;;;;10276130;28;20198;-79
2022/06/22 18:00:53;;;;;;;2.13;1.17;;;21.30;99.90;;;;;;10261170;29;20377;-79
2022/06/22 18:06:28;;;;;;;3.13;1.45;;;21.20;99.90;;;;;;10277747;28;20205;-79
2022/06/22 18:12:00;;;;;;;1.60;1.10;;;21.00;99.90;;;;;;10277467;28;20223;-79
2022/06/22 18:17:24;;;;;;;1.55;1.10;;;21.00;99.90;;;;;;10274883;29;20223;-79
2022/06/22 18:22:51;;;;;;;2.53;1.13;;;20.90;99.90;;;;;;10237635;29;20211;-79
2022/06/22 18:28:48;;;;;;;1.23;1.05;;;20.80;99.90;;;;;;10239129;29;20187;-79
2022/06/22 18:34:26;;;;;;;1.65;0.90;;;20.70;99.90;;;;;;10194687;29;20240;-79
2022/06/22 18:45:47;;;;;;;1.98;1.23;;;20.40;99.90;;;;;;10177211;29;20231;-79
2022/06/22 18:51:17;;;;;;;2.80;1.10;;;20.30;99.90;;;;;;10176880;29;20236;-80
2022/06/22 18:57:09;;;;;;;2.35;1.20;;;20.20;99.90;;;;;;10150107;29;20573;-80
2022/06/22 19:02:47;;;;;;;1.83;0.90;;;20.10;99.90;;;;;;10009701;29;20291;-80
2022/06/22 19:08:28;;;;;;;1.77;1.00;;;20.00;99.90;;;;;;10060935;29;20298;-81
2022/06/22 19:13:56;;;;;;;1.00;0.90;;;19.90;99.90;;;;;;10085986;29;20238;-84
2022/06/22 19:19:46;;;;;;;2.38;1.90;;;19.80;99.90;;;;;;10138901;29;20197;-84
2022/06/22 19:25:45;;;;;;;7.18;3.47;;;19.70;99.90;;;;;;10140766;29;20213;-85
2022/06/22 19:31:15;;;;;;;5.70;3.40;;;19.50;99.90;;;;;;10137070;29;20241;-84
2022/06/22 19:36:39;;;;;;;9.07;4.35;;;19.40;1.00;;;;;;10162147;29;20218;-85
2022/06/22 19:42:19;;;;;;;10.95;5.22;;;19.10;27.80;;;;;;10218541;29;20199;-80
2022/06/22 19:48:16;;;;;;;8.25;4.10;;;18.90;74.80;;;;;;10248766;28;20388;-83
2022/06/22 19:54:15;;;;;;;9.32;4.15;;;18.70;1.00;;;;;;10244879;29;20521;-85
2022/06/22 19:59:38;;;;;;;5.88;3.75;;;18.50;1.00;;;;;;10266658;29;20246;-83
2022/06/22 20:05:05;;;;;;;5.45;3.78;;;18.30;99.90;;;;;;10280603;28;20226;-83
2022/06/22 20:10:38;;;;;;;7.88;4.30;;;18.10;1.00;;;;;;10282474;29;20262;-79
2022/06/22 20:16:22;;;;;;;5.75;3.97;;;18.00;1.00;;;;;;10265955;29;20490;-83
2022/06/22 20:21:56;;;;;;;26.27;10.93;;;17.80;1.00;;;;;;10313435;28;20273;-84
2022/06/22 20:27:31;;;;;;;14.73;8.57;;;17.60;99.90;;;;;;10258303;28;20227;-80
2022/06/22 20:33:30;;;;;;;10.60;6.20;;;17.60;99.90;;;;;;10253867;29;20250;-82
2022/06/22 20:38:52;;;;;;;8.77;5.95;;;17.50;1.00;;;;;;10224750;29;20577;-83
2022/06/22 20:44:55;;;;;;;7.78;4.88;;;17.40;99.90;;;;;;10252066;28;20200;-79
2022/06/22 20:50:28;;;;;;;8.38;5.60;;;17.30;1.00;;;;;;10239081;29;20198;-80
2022/06/22 20:55:55;;;;;;;7.32;5.05;;;17.30;1.00;;;;;;10275434;29;20482;-81
2022/06/22 21:01:17;;;;;;;7.57;4.30;;;17.10;1.00;;;;;;10277959;28;20205;-81
2022/06/22 21:07:02;;;;;;;5.95;3.90;;;17.10;1.00;;;;;;10277015;28;20230;-79
2022/06/22 21:12:31;;;;;;;5.97;3.70;;;17.10;1.00;;;;;;10276475;28;20414;-79
2022/06/22 21:18:13;;;;;;;5.40;3.53;;;16.90;1.00;;;;;;10279240;28;20218;-78
2022/06/22 21:23:41;;;;;;;7.88;4.38;;;16.80;1.00;;;;;;10310961;28;20207;-83
2022/06/22 21:29:31;;;;;;;6.93;4.30;;;16.70;1.00;;;;;;10263420;29;20203;-85
2022/06/22 21:35:02;;;;;;;7.47;5.05;;;16.70;1.00;;;;;;10273132;28;20293;-83
2022/06/22 21:40:44;;;;;;;7.07;5.18;;;16.60;1.00;;;;;;10288331;28;20191;-79
2022/06/22 21:46:32;;;;;;;9.07;6.47;;;16.50;1.00;;;;;;10316578;28;20221;-79
2022/06/22 21:51:53;;;;;;;10.45;6.57;;;16.50;1.00;;;;;;10317044;28;20219;-83
2022/06/22 21:57:24;;;;;;;10.30;5.63;;;16.40;1.00;;;;;;10302603;28;20194;-82
2022/06/22 22:03:09;;;;;;;9.52;6.22;;;16.30;1.00;;;;;;10316433;28;20398;-84
2022/06/22 22:08:53;;;;;;;6.30;5.28;;;16.20;1.00;;;;;;10289200;28;20500;-79
2022/06/22 22:14:20;;;;;;;11.25;6.32;;;16.10;1.00;;;;;;10301254;28;20239;-84
2022/06/22 22:19:50;;;;;;;10.35;6.45;;;16.10;1.00;;;;;;10316662;28;20482;-84
2022/06/22 22:25:35;;;;;;;12.30;6.38;;;16.00;1.00;;;;;;10323098;28;20204;-79
2022/06/22 22:30:59;;;;;;;10.23;6.45;;;15.70;1.00;;;;;;10191898;29;20542;-79
2022/06/22 22:36:24;;;;;;;9.23;6.30;;;15.70;1.00;;;;;;10192038;29;20254;-79
2022/06/22 22:41:49;;;;;;;13.23;6.90;;;15.60;1.00;;;;;;10163517;29;20212;-78
2022/06/22 22:47:28;;;;;;;13.32;7.00;;;15.50;1.00;;;;;;10163248;29;20326;-79
2022/06/22 22:52:54;;;;;;;16.30;8.32;;;15.50;1.00;;;;;;10176337;29;20242;-78
2022/06/22 22:58:21;;;;;;;11.88;7.53;;;15.40;1.00;;;;;;10193286;29;20262;-79
2022/06/22 23:03:43;;;;;;;14.23;7.88;;;15.30;1.00;;;;;;10172336;28;20273;-79
2022/06/22 23:09:08;;;;;;;13.60;7.38;;;15.30;1.00;;;;;;10274712;29;20199;-77
2022/06/22 23:14:33;;;;;;;11.45;7.20;;;15.20;1.00;;;;;;10260178;29;20491;-79
2022/06/22 23:19:57;;;;;;;13.27;7.85;;;15.10;1.00;;;;;;10296644;28;20390;-78
2022/06/22 23:25:24;;;;;;;11.45;7.28;;;15.00;1.00;;;;;;10321488;28;20539;-78
2022/06/22 23:30:59;;;;;;;13.13;8.43;;;15.00;10.00;;;;;;10250737;29;20245;-78
2022/06/22 23:36:37;;;;;;;17.48;9.43;;;14.90;10.50;;;;;;10285125;28;20205;-79
2022/06/22 23:42:05;;;;;;;14.65;9.40;;;14.90;5.60;;;;;;10307961;28;20256;-78
2022/06/22 23:53:13;;;;;;;13.88;8.82;;;14.80;1.50;;;;;;10320881;28;20202;-79
2022/06/22 23:58:37;;;;;;;15.93;8.68;;;14.70;6.20;;;;;;10319687;28;20401;-79
